Terminal Aerodrome Forecast
Issued by NWS Boston, MA

Home | Current Version | Previous Version | Text Only | Print | Product List | Glossary On
Versions: 1 2 3 4 5 6 7 8 9 10 11 12 13 14 15 16 17 18 19 20 21 22 23 24 25 26 27
000
FTUS41 KBOX 291137
TAFORH
TAF
KORH 291137Z 2912/3012 VRB03KT P6SM SKC
     FM291800 19005KT P6SM FEW200
     FM292300 19006KT P6SM BKN110
     FM300500 19007KT 3SM -SN OVC040
     FM300700 19007KT 2SM -SN OVC010
     FM300900 19006KT 1SM -SN OVC010
     FM301100 21005KT 2SM -SN OVC003=

USA.gov is the U.S. government's official web portal to all federal, state and local government web resources and services.